Time;durP1;ratioP1;P1;durP2;ratioP2;P2;SDS_P1;SDS_P2;PMS_P1;PMS_P2;Temp;Humidity;BMP_temperature;BMP_pressure;BME280_temperature;BME280_humidity;BME280_pressure;Samples;Min_cycle;Max_cycle;Signal;HPM_P1;HPM_P2
2021/07/03 00:02:21;;;;;;;18.45;12.00;;;17.90;99.90;;;;;;4978977;28;20061;-91
2021/07/03 00:04:57;;;;;;;14.77;12.13;;;17.90;99.90;;;;;;4984156;28;20056;-90
2021/07/03 00:07:30;;;;;;;13.85;10.25;;;17.90;99.90;;;;;;4975062;28;20046;-90
2021/07/03 00:10:04;;;;;;;11.65;9.88;;;17.90;99.90;;;;;;4986462;28;20052;-91
2021/07/03 00:12:38;;;;;;;13.13;9.80;;;17.90;99.90;;;;;;4974113;28;20060;-90
2021/07/03 00:15:15;;;;;;;13.75;9.65;;;17.90;99.90;;;;;;4984452;28;20053;-92
2021/07/03 00:17:50;;;;;;;11.55;8.95;;;17.90;99.90;;;;;;4984260;28;20563;-90
2021/07/03 00:20:26;;;;;;;12.68;9.52;;;17.80;99.90;;;;;;4972071;28;20088;-91
2021/07/03 00:23:00;;;;;;;12.20;9.45;;;17.90;99.90;;;;;;4978527;28;20050;-90
2021/07/03 00:25:36;;;;;;;11.85;8.82;;;17.80;99.90;;;;;;4962670;28;20049;-91
2021/07/03 00:28:08;;;;;;;12.75;9.32;;;17.80;99.90;;;;;;4993074;28;20099;-90
2021/07/03 00:30:40;;;;;;;11.20;7.80;;;17.80;99.90;;;;;;5003705;28;20434;-89
2021/07/03 00:33:13;;;;;;;8.85;6.85;;;17.80;99.90;;;;;;4984841;28;20092;-90
2021/07/03 00:35:45;;;;;;;7.35;6.63;;;17.80;99.90;;;;;;4992001;28;20046;-91
2021/07/03 00:38:20;;;;;;;8.52;6.65;;;17.70;99.90;;;;;;4973692;28;20056;-91
2021/07/03 00:40:54;;;;;;;7.50;6.10;;;17.70;99.90;;;;;;4989606;28;20375;-91
2021/07/03 00:43:31;;;;;;;7.93;6.75;;;17.80;99.90;;;;;;4994412;28;20362;-91
2021/07/03 00:46:08;;;;;;;6.25;5.63;;;17.70;99.90;;;;;;4988142;28;20073;-91
2021/07/03 00:48:43;;;;;;;7.85;5.93;;;17.70;99.90;;;;;;4970197;28;20050;-91
2021/07/03 00:51:18;;;;;;;6.95;5.30;;;17.70;99.90;;;;;;4976237;28;20054;-92
2021/07/03 00:53:53;;;;;;;5.05;4.53;;;17.70;99.90;;;;;;4989216;28;20034;-92
2021/07/03 00:56:29;;;;;;;8.13;4.60;;;17.70;99.90;;;;;;4973352;28;20183;-91
2021/07/03 00:59:03;;;;;;;6.53;4.90;;;17.70;99.90;;;;;;4987193;28;20144;-92
2021/07/03 01:01:41;;;;;;;5.32;4.50;;;17.70;99.90;;;;;;4973198;28;20049;-91
2021/07/03 01:04:17;;;;;;;7.55;4.65;;;17.70;99.90;;;;;;4973924;28;20542;-91
2021/07/03 01:06:51;;;;;;;7.97;4.55;;;17.60;99.90;;;;;;4983539;28;20092;-90
2021/07/03 01:09:26;;;;;;;7.85;4.53;;;17.60;99.90;;;;;;4971310;28;20069;-90
2021/07/03 01:12:02;;;;;;;8.43;5.10;;;17.60;99.90;;;;;;4980226;28;20046;-90
2021/07/03 01:14:43;;;;;;;8.48;5.40;;;17.60;99.90;;;;;;4977531;28;20140;-90
2021/07/03 01:17:14;;;;;;;;;;;17.60;99.90;;;;;;4976603;28;20121;-91
2021/07/03 01:19:50;;;;;;;10.77;5.47;;;17.50;99.90;;;;;;4986328;28;19927;-91
2021/07/03 01:22:22;;;;;;;8.77;5.10;;;17.50;99.90;;;;;;4978253;28;20100;-91
2021/07/03 01:24:57;;;;;;;12.38;5.88;;;17.50;99.90;;;;;;4988152;28;20475;-91
2021/07/03 01:27:32;;;;;;;12.38;5.32;;;17.50;99.90;;;;;;4967851;28;20050;-91
2021/07/03 01:30:11;;;;;;;11.35;5.20;;;17.50;99.90;;;;;;4987762;28;20663;-91
2021/07/03 01:32:45;;;;;;;9.60;4.85;;;17.50;99.90;;;;;;4959577;28;20046;-91
2021/07/03 01:35:24;;;;;;;12.93;5.38;;;17.40;99.90;;;;;;4963694;28;20146;-92
2021/07/03 01:37:59;;;;;;;13.55;5.72;;;17.40;99.90;;;;;;4983346;28;20060;-91
2021/07/03 01:40:33;;;;;;;11.27;5.18;;;17.40;99.90;;;;;;4976577;28;20549;-91
2021/07/03 01:43:11;;;;;;;16.40;5.35;;;17.30;99.90;;;;;;4975023;28;20050;-91
2021/07/03 01:45:45;;;;;;;17.52;6.13;;;17.30;99.90;;;;;;4981088;28;20047;-92
2021/07/03 01:48:30;;;;;;;16.13;5.30;;;17.30;99.90;;;;;;4987677;28;20427;-91
2021/07/03 01:51:04;;;;;;;11.05;5.65;;;17.30;99.90;;;;;;4974519;28;20054;-92
2021/07/03 01:53:45;;;;;;;17.50;5.90;;;17.30;99.90;;;;;;4956538;28;20054;-91
2021/07/03 01:56:20;;;;;;;17.88;5.97;;;17.30;99.90;;;;;;4966998;28;20387;-91
2021/07/03 01:58:58;;;;;;;13.05;5.15;;;17.20;99.90;;;;;;4979734;28;20407;-91
2021/07/03 02:01:34;;;;;;;12.45;6.00;;;17.20;99.90;;;;;;4951562;28;20050;-91
2021/07/03 02:04:10;;;;;;;18.98;5.70;;;17.20;99.90;;;;;;4986705;28;20058;-91
2021/07/03 02:06:47;;;;;;;19.38;5.82;;;17.20;99.90;;;;;;4982045;28;20057;-91
2021/07/03 02:09:21;;;;;;;16.85;5.53;;;17.20;99.90;;;;;;4978119;28;20118;-91
2021/07/03 02:11:56;;;;;;;13.07;5.07;;;17.20;99.90;;;;;;4983835;28;20550;-91
2021/07/03 02:14:31;;;;;;;13.07;5.78;;;17.10;99.90;;;;;;4984145;28;20050;-90
2021/07/03 02:17:07;;;;;;;20.08;6.28;;;17.10;99.90;;;;;;4981822;28;20057;-91
2021/07/03 02:19:43;;;;;;;16.83;5.57;;;17.10;99.90;;;;;;4971351;28;20077;-91
2021/07/03 02:22:18;;;;;;;19.35;5.93;;;17.10;99.90;;;;;;4976751;28;20084;-91
2021/07/03 02:24:54;;;;;;;18.30;6.25;;;17.10;99.90;;;;;;4998127;28;20144;-92
2021/07/03 02:27:28;;;;;;;16.63;5.05;;;17.10;99.90;;;;;;4983132;28;20127;-91
2021/07/03 02:30:04;;;;;;;16.58;5.75;;;17.10;99.90;;;;;;4987460;28;20105;-91
2021/07/03 02:32:41;;;;;;;12.90;5.68;;;17.00;99.90;;;;;;4954440;28;20049;-91
2021/07/03 02:35:17;;;;;;;18.55;5.97;;;17.00;99.90;;;;;;4955846;28;20484;-91
2021/07/03 02:37:52;;;;;;;23.45;6.47;;;17.00;99.90;;;;;;4963783;28;20054;-91
2021/07/03 02:40:28;;;;;;;22.25;6.30;;;17.00;99.90;;;;;;4958785;28;20061;-91
2021/07/03 02:43:03;;;;;;;19.63;6.38;;;17.00;99.90;;;;;;4958656;28;20053;-92
2021/07/03 02:45:40;;;;;;;21.02;6.05;;;17.00;99.90;;;;;;4936575;28;20054;-91
2021/07/03 02:48:16;;;;;;;19.13;5.80;;;17.00;99.90;;;;;;4958252;28;20408;-91
2021/07/03 02:50:52;;;;;;;17.90;5.72;;;17.00;99.90;;;;;;4964024;28;20119;-92
2021/07/03 02:53:26;;;;;;;26.10;6.32;;;17.00;99.90;;;;;;4955608;28;20046;-91
2021/07/03 02:56:03;;;;;;;18.70;5.72;;;17.00;99.90;;;;;;4962573;28;20050;-91
2021/07/03 02:58:43;;;;;;;20.20;5.85;;;17.00;99.90;;;;;;4951699;28;20052;-91
2021/07/03 03:01:17;;;;;;;19.63;5.45;;;17.00;99.90;;;;;;4976063;28;20054;-91
2021/07/03 03:03:52;;;;;;;20.77;5.82;;;17.00;99.90;;;;;;4960797;28;20066;-91
2021/07/03 03:06:27;;;;;;;17.23;5.20;;;17.00;99.90;;;;;;4952234;28;20050;-91
2021/07/03 03:09:01;;;;;;;24.13;6.18;;;17.00;99.90;;;;;;4969661;28;20057;-91
2021/07/03 03:11:37;;;;;;;20.30;5.97;;;17.00;99.90;;;;;;4948051;28;20050;-92
2021/07/03 03:14:12;;;;;;;20.48;5.80;;;17.00;99.90;;;;;;4946425;28;20054;-92
2021/07/03 03:16:47;;;;;;;21.83;5.95;;;17.00;99.90;;;;;;4969137;28;20058;-92
2021/07/03 03:19:23;;;;;;;17.77;5.60;;;17.00;99.90;;;;;;4952379;28;20047;-92
2021/07/03 03:21:59;;;;;;;16.35;5.60;;;17.00;99.90;;;;;;4968992;28;20131;-92
2021/07/03 03:24:34;;;;;;;20.70;5.40;;;17.00;99.90;;;;;;4967687;28;20053;-92
2021/07/03 03:27:10;;;;;;;21.92;5.40;;;17.10;99.90;;;;;;4955494;28;20106;-92
2021/07/03 03:29:46;;;;;;;17.15;6.05;;;17.00;99.90;;;;;;4960795;28;20062;-93
2021/07/03 03:32:23;;;;;;;29.73;5.93;;;17.10;99.90;;;;;;4953299;28;20561;-92
2021/07/03 03:34:57;;;;;;;19.40;5.18;;;17.10;99.90;;;;;;4969339;28;20046;-92
2021/07/03 03:37:34;;;;;;;21.13;6.45;;;17.10;99.90;;;;;;4956468;28;20057;-92
2021/07/03 03:40:10;;;;;;;25.23;5.70;;;17.10;99.90;;;;;;4956845;28;20046;-92
2021/07/03 03:42:47;;;;;;;20.73;5.57;;;17.10;99.90;;;;;;4949042;28;20049;-93
2021/07/03 03:45:22;;;;;;;24.38;6.10;;;17.10;99.90;;;;;;4952711;28;20062;-92
2021/07/03 03:47:59;;;;;;;21.60;5.85;;;17.00;99.90;;;;;;4991325;28;20062;-92
2021/07/03 03:50:37;;;;;;;16.73;5.20;;;17.10;99.90;;;;;;4949657;28;20153;-93
2021/07/03 03:53:13;;;;;;;20.27;6.22;;;17.10;99.90;;;;;;4950149;28;20393;-93
2021/07/03 03:55:50;;;;;;;21.55;5.43;;;17.10;99.90;;;;;;4973572;28;20050;-93
2021/07/03 03:58:27;;;;;;;22.08;5.60;;;17.10;99.90;;;;;;4952865;28;20047;-92
2021/07/03 04:01:03;;;;;;;19.85;5.32;;;17.00;99.90;;;;;;4964456;28;20057;-93
2021/07/03 04:03:43;;;;;;;21.55;5.22;;;17.00;99.90;;;;;;4950339;28;20054;-93
2021/07/03 04:06:19;;;;;;;17.70;5.22;;;17.00;99.90;;;;;;4955036;28;20050;-92
2021/07/03 04:08:55;;;;;;;17.48;4.75;;;17.00;99.90;;;;;;4960894;28;20058;-92
2021/07/03 04:11:31;;;;;;;18.70;5.38;;;17.10;99.90;;;;;;4953341;28;20398;-92
2021/07/03 04:14:09;;;;;;;18.05;5.43;;;17.00;99.90;;;;;;4957198;28;20169;-92
2021/07/03 04:16:44;;;;;;;26.30;5.03;;;17.00;99.90;;;;;;4940082;28;20560;-93
2021/07/03 04:19:21;;;;;;;18.65;5.38;;;17.00;99.90;;;;;;4954981;28;20050;-93
2021/07/03 04:21:55;;;;;;;16.20;4.47;;;17.00;99.90;;;;;;4959945;28;20038;-92
2021/07/03 04:24:32;;;;;;;19.50;5.30;;;17.00;99.90;;;;;;4952812;28;20042;-92
2021/07/03 04:27:09;;;;;;;18.48;4.72;;;17.00;99.90;;;;;;4960193;28;20105;-93
2021/07/03 04:29:47;;;;;;;10.05;3.40;;;16.90;99.90;;;;;;4937075;28;20057;-94
2021/07/03 04:32:26;;;;;;;10.70;3.13;;;16.90;99.90;;;;;;4962842;28;20038;-93
2021/07/03 04:35:01;;;;;;;12.00;3.30;;;16.90;99.90;;;;;;4957598;28;20388;-92
2021/07/03 04:37:37;;;;;;;10.25;2.83;;;16.90;99.90;;;;;;4936968;28;20077;-93
2021/07/03 04:40:11;;;;;;;8.65;2.88;;;16.80;99.90;;;;;;4950860;28;20051;-93
2021/07/03 04:42:49;;;;;;;13.13;2.80;;;16.90;99.90;;;;;;4957211;28;20050;-93
2021/07/03 04:45:23;;;;;;;10.98;3.03;;;16.80;99.90;;;;;;4953126;28;20053;-91
2021/07/03 04:48:00;;;;;;;9.23;2.63;;;16.80;99.90;;;;;;4957905;28;20138;-93
2021/07/03 04:50:39;;;;;;;9.75;2.65;;;16.80;99.90;;;;;;4934194;28;20046;-92
2021/07/03 04:53:15;;;;;;;10.73;2.75;;;16.80;99.90;;;;;;4940810;28;20043;-93
2021/07/03 04:55:53;;;;;;;10.32;2.95;;;16.80;99.90;;;;;;4951761;28;20109;-94
2021/07/03 04:58:28;;;;;;;9.13;3.38;;;16.80;99.90;;;;;;4954471;28;20049;-93
2021/07/03 05:01:02;;;;;;;14.18;3.78;;;16.80;99.90;;;;;;4965652;28;20129;-93
2021/07/03 05:03:42;;;;;;;13.02;3.85;;;16.80;99.90;;;;;;4964542;28;20041;-92
2021/07/03 05:06:16;;;;;;;11.77;3.17;;;16.90;99.90;;;;;;4958597;28;20054;-93
2021/07/03 05:08:51;;;;;;;12.77;3.65;;;16.80;99.90;;;;;;4957209;28;20683;-93
2021/07/03 05:11:26;;;;;;;11.35;3.38;;;16.90;99.90;;;;;;4950177;28;20056;-93
2021/07/03 05:14:03;;;;;;;13.23;3.50;;;16.80;99.90;;;;;;4960155;28;20050;-92
2021/07/03 05:16:41;;;;;;;15.18;3.47;;;16.90;99.90;;;;;;4942686;28;20046;-93
2021/07/03 05:19:17;;;;;;;14.90;3.25;;;16.90;99.90;;;;;;4954148;28;20101;-92
2021/07/03 05:21:52;;;;;;;10.65;3.92;;;16.90;99.90;;;;;;4966250;28;20072;-92
2021/07/03 05:24:28;;;;;;;15.85;4.43;;;16.90;99.90;;;;;;4946830;28;20553;-93
2021/07/03 05:27:02;;;;;;;16.27;4.05;;;16.90;99.90;;;;;;4961782;28;20054;-93
2021/07/03 05:29:41;;;;;;;16.23;3.90;;;16.90;99.90;;;;;;4950902;28;20054;-94
2021/07/03 05:32:17;;;;;;;12.07;3.65;;;17.00;99.90;;;;;;4959739;28;20138;-93
2021/07/03 05:34:52;;;;;;;12.63;3.65;;;17.00;99.90;;;;;;4973766;28;20038;-93
2021/07/03 05:37:26;;;;;;;9.57;3.70;;;17.00;99.90;;;;;;4978935;28;20054;-93
2021/07/03 05:40:01;;;;;;;14.13;4.15;;;17.00;99.90;;;;;;4998253;28;20045;-93
2021/07/03 05:42:37;;;;;;;14.50;3.90;;;17.00;99.90;;;;;;4961870;28;20045;-93
2021/07/03 05:45:14;;;;;;;14.18;4.00;;;17.00;99.90;;;;;;4984571;28;20061;-92
2021/07/03 05:47:51;;;;;;;18.63;4.85;;;17.10;99.90;;;;;;4988571;28;20046;-93
2021/07/03 05:50:28;;;;;;;15.98;4.90;;;17.10;99.90;;;;;;4967647;28;20109;-93
2021/07/03 05:53:02;;;;;;;16.48;4.63;;;17.10;99.90;;;;;;4993267;28;20158;-93
2021/07/03 05:55:36;;;;;;;15.05;3.95;;;17.10;99.90;;;;;;4985241;28;20110;-92
2021/07/03 05:58:11;;;;;;;16.10;4.50;;;17.20;99.90;;;;;;4991294;28;20433;-93
2021/07/03 06:00:48;;;;;;;12.82;4.10;;;17.20;99.90;;;;;;4990511;28;20129;-93
2021/07/03 06:03:28;;;;;;;12.52;4.53;;;17.20;99.90;;;;;;4982452;28;20534;-93
2021/07/03 06:06:04;;;;;;;12.55;3.97;;;17.20;99.90;;;;;;4987262;28;20106;-94
2021/07/03 06:08:38;;;;;;;;;;;17.10;99.90;;;;;;4951488;28;20049;-96
2021/07/03 06:11:17;;;;;;;13.18;3.50;;;17.10;99.90;;;;;;4968125;28;19922;-94
2021/07/03 06:13:57;;;;;;;11.05;3.13;;;17.10;99.90;;;;;;4985790;28;20069;-93
2021/07/03 06:16:46;;;;;;;;;;;;;;;;;;;;;
2021/07/03 06:19:24;;;;;;;5.05;2.22;;;17.00;99.90;;;;;;4991886;28;20479;-93
2021/07/03 06:22:03;;;;;;;5.10;2.28;;;16.90;99.90;;;;;;4984465;28;20072;-92
2021/07/03 06:24:39;;;;;;;3.67;2.40;;;16.80;99.90;;;;;;4980981;28;20142;-93
2021/07/03 06:27:17;;;;;;;4.38;2.38;;;16.80;99.90;;;;;;4973413;28;20046;-92
2021/07/03 06:29:52;;;;;;;3.53;1.92;;;16.70;99.90;;;;;;4987711;28;20467;-94
2021/07/03 06:32:32;;;;;;;5.75;2.35;;;16.60;99.90;;;;;;4982318;28;20042;-94
2021/07/03 06:35:08;;;;;;;2.63;1.90;;;16.60;99.90;;;;;;4983060;28;20052;-93
2021/07/03 06:37:48;;;;;;;6.53;2.00;;;16.60;99.90;;;;;;4956204;28;20077;-94
2021/07/03 06:40:28;;;;;;;2.67;1.85;;;16.60;99.90;;;;;;4980397;28;20050;-94
2021/07/03 06:43:04;;;;;;;2.90;1.75;;;16.60;99.90;;;;;;4956449;28;20120;-93
2021/07/03 06:45:41;;;;;;;4.65;2.10;;;16.70;99.90;;;;;;4979794;28;20117;-92
2021/07/03 06:48:17;;;;;;;4.93;2.00;;;16.70;99.90;;;;;;4969821;28;20054;-93
2021/07/03 06:50:52;;;;;;;3.05;2.00;;;16.80;99.90;;;;;;4978355;28;20415;-93
2021/07/03 06:53:28;;;;;;;4.20;2.30;;;16.90;99.90;;;;;;4973322;28;20073;-94
2021/07/03 06:56:04;;;;;;;5.25;2.15;;;17.00;99.90;;;;;;4964845;28;20073;-94
2021/07/03 06:58:42;;;;;;;5.35;2.00;;;17.20;99.90;;;;;;4976289;28;20061;-94
2021/07/03 07:01:16;;;;;;;4.90;2.53;;;17.30;99.90;;;;;;4974728;28;20443;-94
2021/07/03 07:03:52;;;;;;;4.45;2.30;;;17.40;99.90;;;;;;4981913;28;20096;-94
2021/07/03 07:06:27;;;;;;;5.55;2.65;;;17.50;99.90;;;;;;4971866;28;20081;-94
2021/07/03 07:09:01;;;;;;;5.85;2.78;;;17.60;99.90;;;;;;4986243;28;20045;-94
2021/07/03 07:11:38;;;;;;;5.53;2.58;;;17.60;99.90;;;;;;4975846;28;20050;-93
2021/07/03 07:14:15;;;;;;;10.45;3.30;;;17.70;99.90;;;;;;4977964;28;20057;-93
2021/07/03 07:16:50;;;;;;;8.77;3.70;;;17.70;99.90;;;;;;4988786;28;20133;-94
2021/07/03 07:19:27;;;;;;;9.90;3.58;;;17.80;99.90;;;;;;4975116;28;20140;-93
2021/07/03 07:22:03;;;;;;;8.57;3.55;;;17.80;99.90;;;;;;4989095;28;20053;-93
2021/07/03 07:24:43;;;;;;;6.13;2.97;;;17.80;99.90;;;;;;4985713;28;20125;-94
2021/07/03 07:27:18;;;;;;;5.63;2.10;;;17.70;99.90;;;;;;4979093;28;20117;-93
2021/07/03 07:29:56;;;;;;;2.88;2.03;;;17.60;99.90;;;;;;4989812;28;20049;-94
2021/07/03 07:32:34;;;;;;;5.38;1.85;;;17.50;99.90;;;;;;4966784;28;20062;-93
2021/07/03 07:35:09;;;;;;;3.40;1.98;;;17.50;99.90;;;;;;4953982;28;20070;-93
2021/07/03 07:37:56;;;;;;;3.65;2.10;;;17.40;99.90;;;;;;4978052;28;20050;-93
2021/07/03 07:40:32;;;;;;;5.13;2.03;;;17.50;99.90;;;;;;4940785;28;20057;-94
2021/07/03 07:43:10;;;;;;;7.78;2.40;;;17.50;99.90;;;;;;4973827;28;20395;-94
2021/07/03 07:45:45;;;;;;;4.90;2.10;;;17.60;99.90;;;;;;4936324;28;20130;-93
2021/07/03 07:48:20;;;;;;;3.85;2.05;;;17.70;99.90;;;;;;4951790;28;20066;-94
2021/07/03 07:50:57;;;;;;;4.53;2.40;;;17.80;99.90;;;;;;4958866;28;20456;-94
2021/07/03 07:53:31;;;;;;;4.80;2.17;;;18.00;99.90;;;;;;4956453;28;20447;-94
2021/07/03 07:56:18;;;;;;;4.82;2.30;;;18.20;99.90;;;;;;4956161;28;20047;-94
2021/07/03 07:58:54;;;;;;;6.68;2.38;;;18.30;99.90;;;;;;4959456;28;20049;-93
2021/07/03 08:01:29;;;;;;;6.40;2.33;;;18.40;99.90;;;;;;4957722;28;20441;-93
2021/07/03 08:04:07;;;;;;;6.20;2.72;;;18.40;99.90;;;;;;4964050;28;20046;-92
2021/07/03 08:06:42;;;;;;;7.70;2.80;;;18.60;99.90;;;;;;4968127;28;20073;-93
2021/07/03 08:09:19;;;;;;;5.53;2.97;;;18.70;99.90;;;;;;4939947;28;20408;-93
2021/07/03 08:11:54;;;;;;;9.23;3.33;;;18.60;99.90;;;;;;4960230;28;20050;-92
2021/07/03 08:14:30;;;;;;;9.02;3.50;;;18.70;99.90;;;;;;4960451;28;20072;-92
2021/07/03 08:17:04;;;;;;;6.22;2.95;;;18.70;99.90;;;;;;4958414;28;20141;-92
2021/07/03 08:19:44;;;;;;;9.40;3.17;;;18.60;99.90;;;;;;4967514;28;20046;-92
2021/07/03 08:22:20;;;;;;;8.43;3.40;;;18.70;99.90;;;;;;4958117;28;20073;-92
2021/07/03 08:24:56;;;;;;;11.45;3.30;;;18.70;99.90;;;;;;4971250;28;20046;-93
2021/07/03 08:27:31;;;;;;;9.02;2.85;;;18.70;99.90;;;;;;4959756;28;20429;-92
2021/07/03 08:30:06;;;;;;;11.95;3.88;;;18.70;99.90;;;;;;4943962;28;20050;-95
2021/07/03 08:32:44;;;;;;;10.00;3.72;;;18.70;99.90;;;;;;4941887;28;20058;-94
2021/07/03 08:35:22;;;;;;;9.98;3.20;;;18.80;99.90;;;;;;4953999;28;20043;-93
2021/07/03 08:37:55;;;;;;;11.85;3.65;;;18.90;99.90;;;;;;4941602;28;20046;-94
2021/07/03 08:40:32;;;;;;;8.48;2.80;;;18.90;99.90;;;;;;4950700;28;20043;-94
2021/07/03 08:43:08;;;;;;;5.88;2.95;;;19.00;99.90;;;;;;4968765;28;20118;-95
2021/07/03 08:45:46;;;;;;;9.50;2.95;;;19.00;99.90;;;;;;4970884;28;20049;-95
2021/07/03 08:48:28;;;;;;;4.82;2.40;;;19.10;99.90;;;;;;4957228;28;20481;-94
2021/07/03 08:51:11;;;;;;;5.40;2.45;;;19.20;99.90;;;;;;4957869;28;20042;-95
2021/07/03 08:53:56;;;;;;;5.25;2.15;;;19.30;99.90;;;;;;4928425;28;20106;-94
2021/07/03 08:56:49;;;;;;;;;;;;;;;;;;;;;
2021/07/03 08:59:31;;;;;;;5.13;2.10;;;19.40;99.90;;;;;;4943246;28;20439;-95
2021/07/03 09:02:16;;;;;;;5.80;2.22;;;19.50;99.90;;;;;;4969535;28;20046;-94
2021/07/03 09:04:51;;;;;;;7.20;1.90;;;19.50;99.90;;;;;;4960897;28;20046;-93
2021/07/03 09:07:32;;;;;;;4.22;1.60;;;19.60;99.90;;;;;;4954041;28;20051;-94
2021/07/03 09:10:06;;;;;;;3.90;2.13;;;19.60;99.90;;;;;;4954320;28;20050;-94
2021/07/03 09:12:43;;;;;;;6.10;1.77;;;19.70;99.90;;;;;;4956246;28;20042;-93
2021/07/03 09:15:17;;;;;;;4.25;1.80;;;19.80;99.90;;;;;;4956216;28;20074;-93
2021/07/03 09:18:00;;;;;;;5.60;2.10;;;19.90;99.90;;;;;;4952612;28;20038;-93
2021/07/03 09:20:40;;;;;;;8.13;1.52;;;20.00;99.90;;;;;;4955188;28;20038;-92
2021/07/03 09:23:18;;;;;;;3.53;1.35;;;20.00;99.90;;;;;;4956965;28;20050;-92
2021/07/03 09:25:56;;;;;;;4.65;1.58;;;20.00;99.90;;;;;;4964368;28;20079;-93
2021/07/03 09:28:37;;;;;;;5.95;1.60;;;20.00;99.90;;;;;;4946752;28;20073;-94
2021/07/03 09:31:08;;;;;;;;;;;20.00;99.90;;;;;;4940311;28;20050;-93
2021/07/03 09:33:49;;;;;;;6.65;1.80;;;19.90;99.90;;;;;;4975041;28;19921;-93
2021/07/03 09:36:38;;;;;;;4.90;1.67;;;19.80;99.90;;;;;;4976963;28;20065;-93
2021/07/03 09:39:21;;;;;;;5.57;1.70;;;19.80;99.90;;;;;;4981714;28;20054;-93
2021/07/03 09:41:54;;;;;;;6.63;1.52;;;19.90;99.90;;;;;;4980073;28;20181;-93
2021/07/03 09:44:30;;;;;;;4.18;1.42;;;20.00;99.90;;;;;;4970815;28;20041;-93
2021/07/03 09:47:04;;;;;;;3.33;1.50;;;20.00;99.90;;;;;;4976508;28;20042;-93
2021/07/03 09:49:41;;;;;;;4.47;1.60;;;20.20;99.90;;;;;;4957623;28;20070;-93
2021/07/03 09:52:21;;;;;;;3.33;1.70;;;20.20;99.90;;;;;;4967844;28;20483;-93
2021/07/03 09:54:58;;;;;;;5.00;1.67;;;20.20;99.90;;;;;;4984906;28;20041;-93
2021/07/03 09:57:35;;;;;;;4.35;1.70;;;20.20;99.90;;;;;;4973055;28;20049;-93
2021/07/03 10:00:15;;;;;;;7.30;1.95;;;20.10;99.90;;;;;;4975180;28;20061;-93
2021/07/03 10:02:49;;;;;;;6.68;1.90;;;20.00;99.90;;;;;;4981853;28;20400;-92
2021/07/03 10:05:26;;;;;;;4.65;1.50;;;19.90;99.90;;;;;;4975471;28;20042;-92
2021/07/03 10:08:13;;;;;;;3.80;1.63;;;20.00;99.90;;;;;;4980818;28;20054;-92
2021/07/03 10:10:57;;;;;;;7.07;1.90;;;20.10;99.90;;;;;;4949615;28;20126;-92
2021/07/03 10:13:34;;;;;;;3.38;1.50;;;20.20;99.90;;;;;;4967098;28;20755;-93
2021/07/03 10:16:10;;;;;;;2.28;1.40;;;20.30;99.90;;;;;;4968563;28;20042;-92
2021/07/03 10:18:45;;;;;;;5.45;1.63;;;20.40;99.90;;;;;;4975160;28;20109;-93
2021/07/03 10:21:22;;;;;;;4.47;1.60;;;20.40;99.90;;;;;;4970745;28;20072;-92
2021/07/03 10:23:57;;;;;;;4.97;1.70;;;20.40;99.90;;;;;;4972883;28;20105;-92
2021/07/03 10:26:39;;;;;;;3.95;2.00;;;20.30;99.90;;;;;;4982042;28;20114;-92
2021/07/03 10:29:21;;;;;;;5.93;1.70;;;20.30;99.90;;;;;;4963671;28;20113;-93
2021/07/03 10:31:57;;;;;;;5.43;2.40;;;20.20;99.90;;;;;;4969469;28;20046;-93
2021/07/03 10:34:35;;;;;;;6.40;1.90;;;20.20;99.90;;;;;;4938649;28;20049;-93
2021/07/03 10:37:14;;;;;;;5.50;2.17;;;20.30;99.90;;;;;;4964576;28;20077;-92
2021/07/03 10:39:48;;;;;;;3.60;1.70;;;20.30;99.90;;;;;;4985066;28;20580;-92
2021/07/03 10:42:28;;;;;;;3.28;1.70;;;20.20;99.90;;;;;;4977653;28;20069;-92
2021/07/03 10:45:12;;;;;;;4.70;1.77;;;20.30;99.90;;;;;;4974669;28;20054;-93
2021/07/03 10:47:48;;;;;;;5.22;1.80;;;20.40;99.90;;;;;;4944038;28;20045;-92
2021/07/03 10:50:33;;;;;;;6.53;1.98;;;20.50;99.90;;;;;;4982021;28;20657;-92
2021/07/03 10:53:18;;;;;;;5.10;1.50;;;20.60;99.90;;;;;;5002107;28;20072;-91
2021/07/03 10:55:56;;;;;;;4.57;1.63;;;20.70;99.90;;;;;;4964705;28;20492;-93
2021/07/03 10:58:32;;;;;;;4.00;2.00;;;20.80;99.90;;;;;;4999709;28;20045;-92
2021/07/03 11:01:16;;;;;;;4.63;1.50;;;20.80;99.90;;;;;;5001519;28;20450;-93
2021/07/03 11:03:52;;;;;;;6.57;1.73;;;20.80;99.90;;;;;;4993572;28;20045;-92
2021/07/03 11:06:29;;;;;;;5.57;1.60;;;20.90;99.90;;;;;;4991297;28;20056;-92
2021/07/03 11:09:04;;;;;;;4.95;1.45;;;21.10;99.90;;;;;;5003608;28;20052;-92
2021/07/03 11:11:42;;;;;;;5.00;1.52;;;21.10;99.90;;;;;;5001177;28;20050;-92
2021/07/03 11:14:21;;;;;;;5.57;1.15;;;21.30;99.90;;;;;;4995258;28;20053;-93
2021/07/03 11:16:58;;;;;;;2.85;1.40;;;21.50;99.90;;;;;;5015464;28;20037;-92
2021/07/03 11:19:31;;;;;;;4.40;1.67;;;21.70;99.90;;;;;;5002496;28;20110;-92
2021/07/03 11:22:10;;;;;;;3.53;1.30;;;21.90;99.90;;;;;;5007912;28;20099;-92
2021/07/03 11:24:49;;;;;;;4.10;1.58;;;22.00;99.90;;;;;;4985288;28;20045;-92
2021/07/03 11:27:35;;;;;;;3.38;1.50;;;22.20;99.90;;;;;;4980117;28;20046;-92
2021/07/03 11:30:20;;;;;;;2.75;1.25;;;22.20;99.90;;;;;;4995257;28;20056;-92
2021/07/03 11:33:00;;;;;;;4.25;1.42;;;22.20;99.90;;;;;;5003825;28;20053;-92
2021/07/03 11:35:35;;;;;;;4.68;1.35;;;22.20;99.90;;;;;;4987979;28;20049;-92
2021/07/03 11:38:10;;;;;;;4.57;1.83;;;22.30;99.90;;;;;;4993034;28;20133;-92
2021/07/03 11:40:45;;;;;;;5.68;1.83;;;22.30;99.90;;;;;;4989290;28;20105;-92
2021/07/03 11:43:22;;;;;;;5.38;1.88;;;22.30;99.90;;;;;;4996775;28;20049;-92
2021/07/03 11:46:00;;;;;;;6.38;2.10;;;22.40;99.90;;;;;;5001166;28;20049;-91
2021/07/03 11:48:35;;;;;;;6.43;1.73;;;22.40;99.90;;;;;;4999140;28;20052;-93
2021/07/03 11:51:10;;;;;;;6.28;2.15;;;22.50;99.90;;;;;;4991221;28;20045;-92
2021/07/03 11:53:46;;;;;;;6.93;2.03;;;22.50;99.90;;;;;;5008539;28;20069;-87
2021/07/03 11:56:14;;;;;;;6.90;1.90;;;22.70;99.90;;;;;;5006575;28;20464;-87
2021/07/03 11:58:41;;;;;;;5.03;1.92;;;22.70;99.90;;;;;;5005329;28;20439;-87
2021/07/03 12:01:16;;;;;;;3.63;1.77;;;22.70;99.90;;;;;;5002305;28;20048;-91
2021/07/03 12:03:48;;;;;;;8.82;2.38;;;22.60;99.90;;;;;;5005188;28;20049;-91
2021/07/03 12:06:22;;;;;;;9.15;2.60;;;22.40;99.90;;;;;;4988722;28;20049;-91
2021/07/03 12:08:56;;;;;;;6.70;2.72;;;22.30;99.90;;;;;;5002009;28;20124;-91
2021/07/03 12:11:35;;;;;;;7.93;2.67;;;22.30;99.90;;;;;;4989378;28;20046;-93
2021/07/03 12:14:15;;;;;;;7.18;2.50;;;22.20;99.90;;;;;;4992778;28;20045;-91
2021/07/03 12:16:56;;;;;;;8.52;3.10;;;22.20;99.90;;;;;;5005702;28;20049;-91
2021/07/03 12:19:29;;;;;;;9.95;2.83;;;22.20;99.90;;;;;;5013099;28;20808;-91
2021/07/03 12:22:08;;;;;;;8.07;2.67;;;22.10;99.90;;;;;;5006036;28;20100;-91
2021/07/03 12:24:41;;;;;;;8.82;2.97;;;22.10;99.90;;;;;;4991779;28;20387;-91
2021/07/03 12:27:24;;;;;;;8.32;2.63;;;22.20;99.90;;;;;;4998158;28;20049;-92
2021/07/03 12:30:05;;;;;;;7.45;2.65;;;22.20;99.90;;;;;;5007066;28;20053;-92
2021/07/03 12:33:11;;;;;;;8.07;2.60;;;22.40;99.90;;;;;;4990028;28;20561;-91
2021/07/03 12:35:55;;;;;;;9.75;2.75;;;22.40;99.90;;;;;;4987214;28;20075;-91
2021/07/03 12:38:29;;;;;;;8.25;2.42;;;22.30;99.90;;;;;;4996248;28;20162;-92
2021/07/03 12:41:09;;;;;;;12.65;2.92;;;22.30;99.90;;;;;;4997670;28;20499;-91
2021/07/03 12:43:44;;;;;;;10.88;2.60;;;22.30;99.90;;;;;;4992647;28;20519;-92
2021/07/03 12:46:29;;;;;;;11.25;2.40;;;22.30;99.90;;;;;;4986109;28;20541;-92
2021/07/03 12:49:04;;;;;;;7.90;2.42;;;22.40;99.90;;;;;;4996905;28;20506;-91
2021/07/03 12:51:42;;;;;;;11.13;2.88;;;22.30;99.90;;;;;;4992488;28;20049;-91
2021/07/03 12:54:17;;;;;;;12.73;3.10;;;22.40;99.90;;;;;;4986157;28;20056;-91
2021/07/03 12:56:55;;;;;;;9.93;2.45;;;22.40;99.90;;;;;;4998761;28;20099;-91
2021/07/03 12:59:39;;;;;;;7.93;2.95;;;22.50;99.90;;;;;;4990785;28;20068;-92
2021/07/03 13:02:18;;;;;;;10.18;2.95;;;22.50;99.90;;;;;;4987774;28;20059;-92
2021/07/03 13:04:53;;;;;;;11.32;3.42;;;22.40;99.90;;;;;;4998829;28;20049;-92
2021/07/03 13:07:28;;;;;;;12.55;2.90;;;22.40;99.90;;;;;;4992520;28;20059;-92
2021/07/03 13:10:02;;;;;;;10.00;3.33;;;22.20;99.90;;;;;;4997443;28;20053;-91
2021/07/03 13:12:39;;;;;;;8.90;2.92;;;22.30;99.90;;;;;;5005614;28;20099;-92
2021/07/03 13:15:14;;;;;;;10.73;3.25;;;22.20;99.90;;;;;;4984218;28;20049;-91
2021/07/03 13:17:50;;;;;;;10.45;3.80;;;22.20;99.90;;;;;;4989652;28;20116;-91
2021/07/03 13:20:23;;;;;;;9.75;3.70;;;22.10;99.90;;;;;;4990311;28;20041;-93
2021/07/03 13:22:56;;;;;;;9.80;3.33;;;22.10;99.90;;;;;;4997252;28;20053;-92
2021/07/03 13:25:30;;;;;;;11.13;4.07;;;22.10;99.90;;;;;;4980746;28;20058;-92
2021/07/03 13:28:12;;;;;;;11.52;3.35;;;22.10;99.90;;;;;;4990688;28;20103;-92
2021/07/03 13:30:47;;;;;;;9.63;3.47;;;22.20;99.90;;;;;;4982064;28;20049;-92
2021/07/03 13:33:25;;;;;;;8.77;3.20;;;22.20;99.90;;;;;;4988120;28;20058;-91
2021/07/03 13:36:00;;;;;;;13.57;3.88;;;22.30;99.90;;;;;;4996259;28;20069;-92